createdAt,value
2023-05-22T00:02:12.579Z,98868.00
2023-05-22T00:04:39.536Z,98875.00
2023-05-22T00:07:06.513Z,98876.00
2023-05-22T00:09:33.478Z,98866.00
2023-05-22T00:12:00.799Z,98870.00
2023-05-22T00:14:27.762Z,98862.00
2023-05-22T00:16:54.770Z,98852.00
2023-05-22T00:19:21.716Z,98852.00
2023-05-22T00:21:48.648Z,98861.00
2023-05-22T00:24:15.593Z,98860.00
2023-05-22T00:26:42.532Z,98867.00
2023-05-22T00:29:09.486Z,98845.00
2023-05-22T00:31:36.413Z,98853.00
2023-05-22T00:34:03.315Z,98852.00
2023-05-22T00:36:30.281Z,98835.00
2023-05-22T00:38:57.268Z,98841.00
2023-05-22T00:41:24.195Z,98848.00
2023-05-22T00:43:51.167Z,98860.00
2023-05-22T00:46:18.117Z,98871.00
2023-05-22T00:48:45.012Z,98866.00
2023-05-22T00:51:11.952Z,98867.00
2023-05-22T00:53:38.886Z,98852.00
2023-05-22T00:56:06.420Z,98846.00
2023-05-22T00:58:33.340Z,98857.00
2023-05-22T01:01:00.281Z,98855.00
2023-05-22T01:03:27.575Z,98850.00
2023-05-22T01:05:54.991Z,98861.00
2023-05-22T01:08:22.117Z,98860.00
2023-05-22T01:10:57.173Z,98880.00
2023-05-22T01:14:06.484Z,98871.00
2023-05-22T01:16:44.660Z,98884.00
2023-05-22T01:19:38.969Z,98883.00
2023-05-22T01:22:52.460Z,98882.00
2023-05-22T01:26:02.443Z,98883.00
2023-05-22T01:29:21.607Z,98878.00
2023-05-22T01:31:48.563Z,98871.00
2023-05-22T01:34:15.542Z,98876.00
2023-05-22T01:36:42.538Z,98875.00
2023-05-22T01:39:09.497Z,98869.00
2023-05-22T01:41:36.528Z,98855.00
2023-05-22T01:44:06.441Z,98871.00
2023-05-22T01:46:33.406Z,98877.00
2023-05-22T01:49:00.381Z,98881.00
2023-05-22T01:51:53.138Z,98875.00
2023-05-22T01:54:27.056Z,98854.00
2023-05-22T01:57:18.626Z,98880.00
2023-05-22T01:59:50.179Z,98884.00
2023-05-22T02:02:19.112Z,98876.00
2023-05-22T02:04:52.944Z,98871.00
2023-05-22T02:07:21.503Z,98870.00
2023-05-22T02:09:48.396Z,98870.00
2023-05-22T02:12:15.305Z,98873.00
2023-05-22T02:14:43.071Z,98866.00
2023-05-22T02:17:10.001Z,98867.00
2023-05-22T02:19:36.954Z,98869.00
2023-05-22T02:22:04.133Z,98876.00
2023-05-22T02:24:32.678Z,98876.00
2023-05-22T02:26:59.610Z,98883.00
2023-05-22T02:29:26.647Z,98878.00
2023-05-22T02:31:56.576Z,98881.00
2023-05-22T02:34:23.541Z,98881.00
2023-05-22T02:36:50.477Z,98877.00
2023-05-22T02:39:20.577Z,98871.00
2023-05-22T02:41:47.507Z,98869.00
2023-05-22T02:44:14.475Z,98872.00
2023-05-22T02:46:41.440Z,98863.00
2023-05-22T02:49:08.393Z,98866.00
2023-05-22T02:51:35.308Z,98863.00
2023-05-22T02:54:02.515Z,98881.00
2023-05-22T02:56:29.385Z,98875.00
2023-05-22T02:58:56.562Z,98876.00
2023-05-22T03:01:23.593Z,98872.00
2023-05-22T03:03:50.764Z,98864.00
2023-05-22T03:06:17.787Z,98872.00
2023-05-22T03:08:44.716Z,98865.00
2023-05-22T03:11:11.661Z,98874.00
2023-05-22T03:13:38.633Z,98888.00
2023-05-22T03:16:05.963Z,98891.00
2023-05-22T03:18:32.997Z,98894.00
2023-05-22T03:20:59.899Z,98883.00
2023-05-22T03:23:26.788Z,98882.00
2023-05-22T03:25:53.766Z,98887.00
2023-05-22T03:28:20.678Z,98881.00
2023-05-22T03:30:47.582Z,98890.00
2023-05-22T03:33:14.504Z,98887.00
2023-05-22T03:35:42.636Z,98880.00
2023-05-22T03:38:09.538Z,98871.00
2023-05-22T03:40:36.607Z,98868.00
2023-05-22T03:43:03.585Z,98870.00
2023-05-22T03:45:30.492Z,98877.00
2023-05-22T03:47:57.489Z,98887.00
2023-05-22T03:50:24.488Z,98884.00
2023-05-22T03:52:51.446Z,98873.00
2023-05-22T03:55:18.365Z,98888.00
2023-05-22T03:57:45.265Z,98882.00
2023-05-22T04:00:13.245Z,98889.00
2023-05-22T04:02:40.338Z,98883.00
2023-05-22T04:05:08.497Z,98888.00
2023-05-22T04:07:35.436Z,98892.00
2023-05-22T04:10:06.604Z,98906.00
2023-05-22T04:12:33.603Z,98907.00
2023-05-22T04:15:00.483Z,98922.00
2023-05-22T04:17:31.922Z,98929.00
2023-05-22T04:19:59.570Z,98934.00
2023-05-22T04:22:29.551Z,98921.00
2023-05-22T04:24:57.007Z,98909.00
2023-05-22T04:27:24.010Z,98926.00
2023-05-22T04:29:51.374Z,98930.00
2023-05-22T04:32:18.563Z,98933.00
2023-05-22T04:34:50.322Z,98938.00
2023-05-22T04:37:18.376Z,98941.00
2023-05-22T04:39:45.946Z,98951.00
2023-05-22T04:42:16.070Z,98944.00
2023-05-22T04:44:43.041Z,98927.00
2023-05-22T04:47:09.997Z,98942.00
2023-05-22T04:49:37.942Z,98943.00
2023-05-22T04:52:05.662Z,98922.00
2023-05-22T04:54:33.264Z,98933.00
2023-05-22T04:57:01.305Z,98946.00
2023-05-22T04:59:28.226Z,98928.00
2023-05-22T05:01:55.177Z,98848.00
2023-05-22T05:04:22.086Z,98810.00
2023-05-22T05:06:48.978Z,98808.00
2023-05-22T05:09:15.980Z,98791.00
2023-05-22T05:11:42.929Z,98783.00
2023-05-22T05:14:09.894Z,98785.00
2023-05-22T05:16:36.910Z,98766.00
2023-05-22T05:19:04.082Z,98770.00
2023-05-22T05:21:31.083Z,98784.00
2023-05-22T05:23:58.035Z,98784.00
2023-05-22T05:26:24.954Z,98772.00
2023-05-22T05:28:51.923Z,98782.00
2023-05-22T05:31:19.645Z,98774.00
2023-05-22T05:33:46.918Z,98784.00
2023-05-22T05:36:13.803Z,98775.00
2023-05-22T05:38:40.859Z,98780.00
2023-05-22T05:41:07.771Z,98781.00
2023-05-22T05:43:34.793Z,98810.00
2023-05-22T05:46:01.811Z,98792.00
2023-05-22T05:48:28.788Z,98780.00
2023-05-22T05:50:55.819Z,98800.00
2023-05-22T05:53:22.712Z,98804.00
2023-05-22T05:55:49.664Z,98900.00
2023-05-22T05:58:16.601Z,98840.00
2023-05-22T06:00:43.564Z,98918.00
2023-05-22T06:03:10.596Z,98818.00
2023-05-22T06:05:38.156Z,98830.00
2023-05-22T06:08:05.352Z,98829.00
2023-05-22T06:10:32.270Z,98826.00
2023-05-22T06:12:59.214Z,98834.00
2023-05-22T06:15:26.136Z,98861.00
2023-05-22T06:17:53.135Z,98845.00
2023-05-22T06:20:20.244Z,98855.00
2023-05-22T06:22:47.194Z,98882.00
2023-05-22T06:25:14.162Z,98912.00
2023-05-22T06:27:41.079Z,98924.00
2023-05-22T06:30:09.223Z,98897.00
2023-05-22T06:32:36.434Z,98964.00
2023-05-22T06:35:03.753Z,98908.00
2023-05-22T06:37:30.648Z,98925.00
2023-05-22T06:39:57.572Z,98974.00
2023-05-22T06:42:24.496Z,99014.00
2023-05-22T06:44:51.438Z,99012.00
2023-05-22T06:47:18.382Z,99011.00
2023-05-22T06:49:45.311Z,99019.00
2023-05-22T06:52:12.281Z,99013.00
2023-05-22T06:54:39.219Z,98971.00
2023-05-22T06:57:06.289Z,98914.00
2023-05-22T06:59:33.209Z,98910.00
2023-05-22T07:02:00.312Z,98961.00
2023-05-22T07:04:27.208Z,98992.00
2023-05-22T07:06:54.148Z,99003.00
2023-05-22T07:09:21.055Z,99017.00
2023-05-22T07:11:48.029Z,99028.00
2023-05-22T07:14:14.951Z,99023.00
2023-05-22T07:16:42.044Z,99025.00
2023-05-22T07:19:09.089Z,99021.00
2023-05-22T07:21:36.030Z,99024.00
2023-05-22T07:24:03.326Z,99023.00
2023-05-22T07:26:30.269Z,99016.00
2023-05-22T07:28:57.246Z,99016.00
2023-05-22T07:31:24.269Z,99012.00
2023-05-22T07:33:51.253Z,99013.00
2023-05-22T07:36:18.186Z,99015.00
2023-05-22T07:38:45.518Z,99010.00
2023-05-22T07:41:12.429Z,99021.00
2023-05-22T07:43:39.400Z,99025.00
2023-05-22T07:46:06.377Z,99015.00
2023-05-22T07:48:33.383Z,99012.00
2023-05-22T07:51:00.363Z,99005.00
2023-05-22T07:53:27.299Z,98999.00
2023-05-22T07:55:54.266Z,99009.00
2023-05-22T07:58:21.292Z,98996.00
2023-05-22T08:00:48.253Z,99011.00
2023-05-22T08:03:15.350Z,99008.00
2023-05-22T08:05:44.525Z,99011.00
2023-05-22T08:08:11.475Z,98991.00
2023-05-22T08:13:08.328Z,98992.00
2023-05-22T08:15:35.208Z,98978.00
2023-05-22T08:18:02.362Z,98981.00
2023-05-22T08:20:29.422Z,98984.00
2023-05-22T08:22:56.564Z,98976.00
2023-05-22T08:25:23.513Z,98966.00
2023-05-22T08:27:50.436Z,98964.00
2023-05-22T08:30:17.449Z,98962.00
2023-05-22T08:32:44.391Z,98955.00
2023-05-22T08:35:11.420Z,98949.00
2023-05-22T08:37:38.352Z,98957.00
2023-05-22T08:40:07.198Z,98942.00
2023-05-22T08:42:34.106Z,98942.00
2023-05-22T08:45:01.020Z,98949.00
2023-05-22T08:47:27.892Z,98928.00
2023-05-22T08:49:54.809Z,98939.00
2023-05-22T08:52:33.153Z,98953.00
2023-05-22T08:55:00.150Z,98952.00
2023-05-22T08:57:27.113Z,98934.00
2023-05-22T08:59:54.022Z,98932.00
2023-05-22T09:02:20.994Z,98933.00
2023-05-22T09:04:47.910Z,98935.00
2023-05-22T09:07:14.824Z,98932.00
2023-05-22T09:09:41.941Z,98926.00
2023-05-22T09:12:10.096Z,98931.00
2023-05-22T09:14:43.749Z,98934.00
2023-05-22T09:17:11.806Z,98931.00
2023-05-22T09:19:42.676Z,98939.00
2023-05-22T09:22:09.704Z,98938.00
2023-05-22T09:24:41.364Z,98930.00
2023-05-22T09:27:08.525Z,98925.00
2023-05-22T09:29:48.680Z,98922.00
2023-05-22T09:32:16.771Z,98918.00
2023-05-22T09:34:43.909Z,98924.00
2023-05-22T09:37:11.555Z,98924.00
2023-05-22T09:39:39.573Z,98923.00
2023-05-22T09:42:07.485Z,98946.00
2023-05-22T09:44:34.647Z,98933.00
2023-05-22T09:47:01.771Z,98921.00
2023-05-22T09:49:28.735Z,98937.00
2023-05-22T09:51:55.706Z,98913.00
2023-05-22T09:54:22.922Z,98939.00
2023-05-22T09:56:50.325Z,98928.00
2023-05-22T09:59:25.869Z,98919.00
2023-05-22T10:01:52.930Z,98946.00
2023-05-22T10:04:20.283Z,98931.00
2023-05-22T10:06:51.928Z,98915.00
2023-05-22T10:09:21.139Z,98924.00
2023-05-22T10:11:48.926Z,98919.00
2023-05-22T10:14:15.894Z,98923.00
2023-05-22T10:16:43.261Z,98938.00
2023-05-22T10:19:10.392Z,98903.00
2023-05-22T10:21:37.292Z,98930.00
2023-05-22T10:24:04.381Z,98931.00
2023-05-22T10:26:31.384Z,98931.00
2023-05-22T10:29:07.684Z,98927.00
2023-05-22T10:32:06.716Z,98936.00
2023-05-22T10:34:49.882Z,98931.00
2023-05-22T10:37:43.862Z,98934.00
2023-05-22T10:40:21.649Z,98928.00
2023-05-22T10:42:48.787Z,98929.00
2023-05-22T10:45:16.558Z,98909.00
2023-05-22T10:47:43.558Z,98920.00
2023-05-22T10:50:11.998Z,98925.00
2023-05-22T10:52:39.734Z,98927.00
2023-05-22T10:55:08.539Z,98934.00
2023-05-22T10:57:37.408Z,98927.00
2023-05-22T11:00:15.867Z,98924.00
2023-05-22T11:02:44.723Z,98922.00
2023-05-22T11:05:20.798Z,98915.00
2023-05-22T11:07:48.478Z,98906.00
2023-05-22T11:10:15.421Z,98908.00
2023-05-22T11:12:42.372Z,98919.00
2023-05-22T11:15:10.178Z,98916.00
2023-05-22T11:17:41.059Z,98906.00
2023-05-22T11:20:24.401Z,98898.00
2023-05-22T11:23:01.403Z,98902.00
2023-05-22T11:25:28.866Z,98912.00
2023-05-22T11:27:56.163Z,98891.00
2023-05-22T11:30:26.955Z,98892.00
2023-05-22T11:32:54.113Z,98889.00
2023-05-22T11:35:22.049Z,98887.00
2023-05-22T11:37:50.505Z,98892.00
2023-05-22T11:40:21.754Z,98900.00
2023-05-22T11:42:48.778Z,98890.00
2023-05-22T11:45:15.742Z,98905.00
2023-05-22T11:47:43.296Z,98889.00
2023-05-22T11:50:11.449Z,98885.00
2023-05-22T11:52:41.592Z,98894.00
2023-05-22T11:55:11.739Z,98894.00
2023-05-22T11:57:38.706Z,98886.00
2023-05-22T12:00:06.917Z,98894.00
2023-05-22T12:02:34.471Z,98879.00
2023-05-22T12:05:01.492Z,98892.00
2023-05-22T12:07:28.373Z,98876.00
2023-05-22T12:09:58.428Z,98882.00
2023-05-22T12:12:25.371Z,98868.00
2023-05-22T12:14:52.894Z,98882.00
2023-05-22T12:17:19.820Z,98878.00
2023-05-22T12:19:47.707Z,98882.00
2023-05-22T12:22:14.677Z,98881.00
2023-05-22T12:24:44.070Z,98880.00
2023-05-22T12:27:11.558Z,98880.00
2023-05-22T12:29:41.851Z,98863.00
2023-05-22T12:32:12.721Z,98870.00
2023-05-22T12:34:45.229Z,98866.00
2023-05-22T12:37:24.261Z,98870.00
2023-05-22T12:39:59.194Z,98867.00
2023-05-22T12:42:26.391Z,98865.00
2023-05-22T12:44:53.948Z,98866.00
2023-05-22T12:47:21.502Z,98868.00
2023-05-22T12:49:48.411Z,98859.00
2023-05-22T12:52:15.351Z,98861.00
2023-05-22T12:54:42.347Z,98854.00
2023-05-22T12:57:09.391Z,98857.00
2023-05-22T12:59:36.335Z,98847.00
2023-05-22T13:02:04.832Z,98851.00
2023-05-22T13:04:31.895Z,98855.00
2023-05-22T13:06:58.833Z,98854.00
2023-05-22T13:09:25.888Z,98848.00
2023-05-22T13:11:52.820Z,98840.00
2023-05-22T13:14:19.744Z,98846.00
2023-05-22T13:16:46.844Z,98843.00
2023-05-22T13:19:13.825Z,98835.00
2023-05-22T13:21:40.782Z,98835.00
2023-05-22T13:24:08.486Z,98825.00
2023-05-22T13:26:35.451Z,98831.00
2023-05-22T13:29:02.344Z,98823.00
2023-05-22T13:31:29.278Z,98821.00
2023-05-22T13:33:56.194Z,98813.00
2023-05-22T13:36:23.237Z,98822.00
2023-05-22T13:38:50.188Z,98814.00
2023-05-22T13:41:17.159Z,98818.00
2023-05-22T13:43:44.054Z,98814.00
2023-05-22T13:46:11.022Z,98818.00
2023-05-22T13:48:38.680Z,98796.00
2023-05-22T13:51:05.672Z,98801.00
2023-05-22T13:53:32.599Z,98803.00
2023-05-22T13:55:59.654Z,98803.00
2023-05-22T13:58:26.596Z,98797.00
2023-05-22T14:00:53.517Z,98796.00
2023-05-22T14:03:20.533Z,98795.00
2023-05-22T14:05:48.101Z,98800.00
2023-05-22T14:08:15.084Z,98793.00
2023-05-22T14:10:42.061Z,98796.00
2023-05-22T14:13:09.006Z,98791.00
2023-05-22T14:15:35.941Z,98786.00
2023-05-22T14:18:02.919Z,98777.00
2023-05-22T14:20:29.803Z,98780.00
2023-05-22T14:22:58.374Z,98783.00
2023-05-22T14:25:26.317Z,98771.00
2023-05-22T14:27:53.366Z,98777.00
2023-05-22T14:30:20.321Z,98775.00
2023-05-22T14:32:47.346Z,98772.00
2023-05-22T14:35:14.256Z,98765.00
2023-05-22T14:37:41.193Z,98756.00
2023-05-22T14:40:08.945Z,98757.00
2023-05-22T14:42:36.684Z,98753.00
2023-05-22T14:45:04.443Z,98749.00
2023-05-22T14:47:31.360Z,98740.00
2023-05-22T14:50:10.074Z,98746.00
2023-05-22T14:52:44.879Z,98738.00
2023-05-22T14:55:11.831Z,98735.00
2023-05-22T14:57:38.761Z,98743.00
2023-05-22T15:00:06.725Z,98745.00
2023-05-22T15:02:33.791Z,98741.00
2023-05-22T15:05:00.777Z,98736.00
2023-05-22T15:07:39.631Z,98740.00
2023-05-22T15:10:10.917Z,98744.00
2023-05-22T15:12:37.924Z,98739.00
2023-05-22T15:15:05.375Z,98734.00
2023-05-22T15:17:32.429Z,98737.00
2023-05-22T15:19:59.433Z,98737.00
2023-05-22T15:22:26.455Z,98735.00
2023-05-22T15:25:10.556Z,98737.00
2023-05-22T15:27:38.951Z,98729.00
2023-05-22T15:30:06.807Z,98726.00
2023-05-22T15:32:33.944Z,98730.00
2023-05-22T15:35:00.978Z,98730.00
2023-05-22T15:37:30.890Z,98728.00
2023-05-22T15:40:00.723Z,98722.00
2023-05-22T15:42:27.758Z,98729.00
2023-05-22T15:44:54.930Z,98720.00
2023-05-22T15:47:21.934Z,98717.00
2023-05-22T15:49:48.925Z,98715.00
2023-05-22T15:52:16.084Z,98718.00
2023-05-22T15:54:43.130Z,98712.00
2023-05-22T15:57:10.054Z,98711.00
2023-05-22T15:59:37.091Z,98709.00
2023-05-22T16:02:04.400Z,98711.00
2023-05-22T16:04:31.430Z,98710.00
2023-05-22T16:06:58.400Z,98717.00
2023-05-22T16:09:25.477Z,98712.00
2023-05-22T16:11:52.573Z,98714.00
2023-05-22T16:14:19.605Z,98718.00
2023-05-22T16:16:46.606Z,98718.00
2023-05-22T16:19:13.821Z,98710.00
2023-05-22T16:21:40.927Z,98708.00
2023-05-22T16:24:08.100Z,98707.00
2023-05-22T16:26:35.138Z,98705.00
2023-05-22T16:29:02.234Z,98700.00
2023-05-22T16:31:29.249Z,98696.00
2023-05-22T16:33:56.374Z,98706.00
2023-05-22T16:36:25.120Z,98702.00
2023-05-22T16:38:53.922Z,98693.00
2023-05-22T16:41:21.031Z,98704.00
2023-05-22T16:43:48.061Z,98710.00
2023-05-22T16:46:15.224Z,98702.00
2023-05-22T16:48:42.187Z,98698.00
2023-05-22T16:51:09.365Z,98688.00
2023-05-22T16:53:38.176Z,98702.00
2023-05-22T16:56:05.739Z,98689.00
2023-05-22T16:58:32.683Z,98696.00
2023-05-22T17:00:59.876Z,98695.00
2023-05-22T17:03:26.853Z,98693.00
2023-05-22T17:05:54.135Z,98687.00
2023-05-22T17:08:21.145Z,98707.00
2023-05-22T17:10:48.144Z,98707.00
2023-05-22T17:13:15.097Z,98703.00
2023-05-22T17:15:42.339Z,98700.00
2023-05-22T17:18:09.573Z,98712.00
2023-05-22T17:20:36.547Z,98711.00
2023-05-22T17:23:03.499Z,98717.00
2023-05-22T17:25:30.472Z,98707.00
2023-05-22T17:27:58.299Z,98716.00
2023-05-22T17:30:25.338Z,98719.00
2023-05-22T17:32:52.363Z,98726.00
2023-05-22T17:35:19.494Z,98712.00
2023-05-22T17:37:46.516Z,98705.00
2023-05-22T17:40:13.472Z,98719.00
2023-05-22T17:42:40.441Z,98720.00
2023-05-22T17:45:08.404Z,98716.00
2023-05-22T17:47:35.446Z,98722.00
2023-05-22T17:50:02.433Z,98721.00
2023-05-22T17:52:29.495Z,98732.00
2023-05-22T17:54:56.481Z,98737.00
2023-05-22T17:57:23.453Z,98737.00
2023-05-22T17:59:50.364Z,98735.00
2023-05-22T18:02:17.659Z,98738.00
2023-05-22T18:04:44.573Z,98735.00
2023-05-22T18:07:11.536Z,98730.00
2023-05-22T18:09:38.490Z,98731.00
2023-05-22T18:12:05.894Z,98740.00
2023-05-22T18:14:32.905Z,98745.00
2023-05-22T18:16:59.872Z,98751.00
2023-05-22T18:19:26.941Z,98742.00
2023-05-22T18:21:53.973Z,98758.00
2023-05-22T18:24:24.992Z,98759.00
2023-05-22T18:26:52.215Z,98734.00
2023-05-22T18:29:19.162Z,98760.00
2023-05-22T18:31:46.147Z,98763.00
2023-05-22T18:34:13.181Z,98756.00
2023-05-22T18:36:40.466Z,98775.00
2023-05-22T18:39:08.329Z,98771.00
2023-05-22T18:41:36.454Z,98768.00
2023-05-22T18:44:03.604Z,98779.00
2023-05-22T18:46:30.569Z,98763.00
2023-05-22T18:48:57.576Z,98779.00
2023-05-22T18:51:24.545Z,98775.00
2023-05-22T18:53:51.494Z,98775.00
2023-05-22T18:56:18.380Z,98794.00
2023-05-22T18:58:45.331Z,98793.00
2023-05-22T19:01:12.386Z,98787.00
2023-05-22T19:03:40.440Z,98794.00
2023-05-22T19:06:07.332Z,98797.00
2023-05-22T19:08:34.286Z,98800.00
2023-05-22T19:11:01.282Z,98794.00
2023-05-22T19:13:28.413Z,98806.00
2023-05-22T19:15:55.463Z,98799.00
2023-05-22T19:18:22.463Z,98805.00
2023-05-22T19:20:49.482Z,98823.00
2023-05-22T19:23:16.438Z,98813.00
2023-05-22T19:25:43.381Z,98821.00
2023-05-22T19:28:10.375Z,98820.00
2023-05-22T19:30:37.395Z,98810.00
2023-05-22T19:33:05.962Z,98806.00
2023-05-22T19:35:34.933Z,98813.00
2023-05-22T19:38:01.876Z,98823.00
2023-05-22T19:40:28.836Z,98828.00
2023-05-22T19:42:56.007Z,98822.00
2023-05-22T19:45:22.969Z,98836.00
2023-05-22T19:47:49.907Z,98832.00
2023-05-22T19:50:17.034Z,98830.00
2023-05-22T19:52:44.209Z,98830.00
2023-05-22T19:55:11.315Z,98833.00
2023-05-22T19:57:38.263Z,98829.00
2023-05-22T20:00:06.466Z,98846.00
2023-05-22T20:02:33.638Z,98852.00
2023-05-22T20:05:00.693Z,98851.00
2023-05-22T20:07:27.619Z,98847.00
2023-05-22T20:09:54.596Z,98853.00
2023-05-22T20:12:21.576Z,98853.00
2023-05-22T20:14:48.562Z,98855.00
2023-05-22T20:17:15.529Z,98868.00
2023-05-22T20:19:42.521Z,98853.00
2023-05-22T20:22:09.496Z,98870.00
2023-05-22T20:24:36.410Z,98870.00
2023-05-22T20:27:03.356Z,98854.00
2023-05-22T20:29:30.286Z,98868.00
2023-05-22T20:31:57.354Z,98857.00
2023-05-22T20:34:24.295Z,98866.00
2023-05-22T20:36:51.212Z,98863.00
2023-05-22T20:39:18.190Z,98873.00
2023-05-22T20:41:46.778Z,98861.00
2023-05-22T20:44:13.878Z,98868.00
2023-05-22T20:46:40.826Z,98868.00
2023-05-22T20:49:07.814Z,98864.00
2023-05-22T20:51:34.748Z,98879.00
2023-05-22T20:54:01.647Z,98874.00
2023-05-22T20:56:28.615Z,98887.00
2023-05-22T20:58:55.911Z,98885.00
2023-05-22T21:01:24.331Z,98888.00
2023-05-22T21:03:51.344Z,98887.00
2023-05-22T21:06:18.512Z,98878.00
2023-05-22T21:08:45.419Z,98872.00
2023-05-22T21:11:12.393Z,98880.00
2023-05-22T21:13:39.376Z,98885.00
2023-05-22T21:16:06.897Z,98879.00
2023-05-22T21:18:33.969Z,98890.00
2023-05-22T21:21:01.105Z,98887.00
2023-05-22T21:23:28.116Z,98868.00
2023-05-22T21:25:55.144Z,98881.00
2023-05-22T21:28:22.144Z,98885.00
2023-05-22T21:30:49.095Z,98883.00
2023-05-22T21:33:16.013Z,98891.00
2023-05-22T21:35:43.001Z,98879.00
2023-05-22T21:38:09.993Z,98882.00
2023-05-22T21:40:36.890Z,98884.00
2023-05-22T21:43:03.918Z,98880.00
2023-05-22T21:45:30.826Z,98870.00
2023-05-22T21:47:57.761Z,98859.00
2023-05-22T21:50:24.702Z,98880.00
2023-05-22T21:52:51.681Z,98881.00
2023-05-22T21:55:18.589Z,98867.00
2023-05-22T21:57:45.629Z,98867.00
2023-05-22T22:00:13.513Z,98877.00
2023-05-22T22:02:40.737Z,98883.00
2023-05-22T22:05:08.154Z,98883.00
2023-05-22T22:07:35.065Z,98872.00
2023-05-22T22:10:02.033Z,98875.00
2023-05-22T22:12:28.980Z,98889.00
2023-05-22T22:14:57.278Z,98893.00
2023-05-22T22:17:24.238Z,98885.00
2023-05-22T22:19:51.177Z,98880.00
2023-05-22T22:22:18.188Z,98902.00
2023-05-22T22:24:46.964Z,98893.00
2023-05-22T22:27:15.082Z,98897.00
2023-05-22T22:29:42.089Z,98909.00
2023-05-22T22:32:09.233Z,98907.00
2023-05-22T22:34:36.179Z,98913.00
2023-05-22T22:37:03.266Z,98902.00
2023-05-22T22:39:30.217Z,98907.00
2023-05-22T22:41:57.111Z,98910.00
2023-05-22T22:44:24.022Z,98915.00
2023-05-22T22:46:50.980Z,98908.00
2023-05-22T22:49:18.019Z,98909.00
2023-05-22T22:51:45.030Z,98904.00
2023-05-22T22:54:12.078Z,98899.00
2023-05-22T22:56:39.141Z,98885.00
2023-05-22T22:59:06.086Z,98887.00
2023-05-22T23:01:33.082Z,98882.00
2023-05-22T23:04:00.036Z,98883.00
2023-05-22T23:06:26.983Z,98892.00
2023-05-22T23:08:53.853Z,98891.00
2023-05-22T23:11:20.822Z,98889.00
2023-05-22T23:13:47.977Z,98895.00
2023-05-22T23:16:15.233Z,98882.00
2023-05-22T23:18:42.204Z,98878.00
2023-05-22T23:21:09.426Z,98886.00
2023-05-22T23:23:36.306Z,98885.00
2023-05-22T23:26:03.356Z,98884.00
2023-05-22T23:28:30.328Z,98878.00
2023-05-22T23:30:57.391Z,98881.00
2023-05-22T23:33:24.792Z,98867.00
2023-05-22T23:35:51.797Z,98875.00
2023-05-22T23:38:18.991Z,98877.00
2023-05-22T23:40:45.993Z,98872.00
2023-05-22T23:43:12.957Z,98880.00
2023-05-22T23:45:40.277Z,98870.00
2023-05-22T23:48:07.328Z,98874.00
2023-05-22T23:50:34.497Z,98873.00
2023-05-22T23:53:01.481Z,98881.00
2023-05-22T23:55:28.528Z,98883.00
2023-05-22T23:57:55.540Z,98889.00
